• Join FlightAware (Why Join?)
  • Login
  • US Flag 
08:06AM EDT


 

Airport Tracker/Info


-or-


 

Live Flight TrackerFlight Track Log ✈ EJA829P ✈ 09-Jul-2013 ✈ KCAK - KBGM

Flight Track Log - Related Links

Times and Time Zones

All times are in EDT time to prevent confusion due to time zone crossing. See the EJA829P flight status page for this flight to view local times or setup timezone preferences in your user account.

Time Position Orientation Groundspeed Altitude Reporting Facility
EDT Latitude Longitude Course Direction KTS MPH feet Rate Location/Type
01:36PM 40.8414 -81.4478 56° Northeast 203 234 5,900  Level Cleveland Center
01:37PM 40.8503 -81.3572 83° East 197 227 8,300 2,340 Climbing Cleveland Center
01:38PM 40.8636 -81.2475 81° East 298 343 10,600 1,800 Climbing Cleveland Center
01:39PM 40.8725 -81.1186 85° East 326 375 11,900 2,340 Climbing Cleveland Center
01:40PM 40.8919 -80.9978 78° East 341 392 15,300 2,760 Climbing Cleveland Center
01:41PM 41.2116 -80.8612 59° Northeast  Level FlightAware Approximate
01:41PM 40.9172 -80.8853 73° East 329 379 17,500  Level Cleveland Center
01:42PM 41.2718 -80.7564 56° Northeast  Level FlightAware Approximate
01:42PM 40.9425 -80.7644 74° East 329 379 19,400  Level Cleveland Center
01:43PM 40.9678 -80.6408 75° East 329 379 20,900 1,500 Climbing Cleveland Center
01:44PM 40.9969 -80.5172 73° East 340 391 22,400 1,500 Climbing Cleveland Center
01:45PM 41.0258 -80.3850 74° East 357 411 23,900 1,200 Climbing Cleveland Center
01:46PM 41.0569 -80.2472 73° East 369 425 24,900 540 Climbing Cleveland Center
01:47PM 41.0856 -80.1067 75° East 382 440 25,000  Climbing Cleveland Center
01:48PM 41.1181 -79.9547 74° East 399 459 25,000  Level Cleveland Center
01:49PM 41.1464 -79.8028 76° East 412 474 25,000  Level Cleveland Center
01:50PM 41.1786 -79.6533 74° East 412 474 25,000  Level Cleveland Center
01:51PM 41.2086 -79.5122 74° East 420 483 25,000  Level Cleveland Center
01:52PM 41.2511 -79.3681 69° East 425 489 25,000  Level Cleveland Center
01:53PM 41.3267 -79.2283 54° Northeast 414 476 25,000 -420 Level Cleveland Center
01:54PM 41.3747 -79.0833 66° East 414 476 24,200 -900 Descending Cleveland Center
01:55PM 41.4144 -78.9383 70° East 414 476 23,200 -600 Descending Cleveland Center
01:56PM 41.4542 -78.7933 70° East 414 476 23,000 -120 Descending Cleveland Center
01:57PM 41.4933 -78.6481 70° East 414 476 23,000  Level Cleveland Center
01:58PM 41.5367 -78.4997 69° East 414 476 23,000  Level Cleveland Center
01:59PM 41.5756 -78.3542 70° East 414 476 23,000  Level Cleveland Center
02:00PM 41.6144 -78.2083 70° East 414 476 23,000  Level Cleveland Center
02:01PM 41.6550 -78.0597 70° East 414 476 23,000  Level Cleveland Center
02:02PM 41.6956 -77.9133 70° East 414 476 23,000 -240 Level Cleveland Center
02:03PM 41.7339 -77.7700 70° East 414 476 22,600 -840 Descending Cleveland Center
02:04PM 41.7550 -77.6917 70° East 417 480 21,700 -1,500 Descending New York Center
02:05PM 41.7947 -77.5483 70° East 417 480 20,200 -1,500 Descending New York Center
02:06PM 41.8294 -77.4128 71° East 404 465 18,700 -1,440 Descending New York Center
02:07PM 41.8617 -77.2822 72° East 378 435 17,300 -1,440 Descending New York Center
02:08PM 41.8981 -77.1464 70° East 373 429 15,800 -1,560 Descending New York Center
02:09PM 41.9347 -77.0022 71° East 373 429 14,200 -1,440 Descending New York Center
02:10PM 41.9686 -76.8742 70° East 373 429 13,000 -1,200 Descending New York Center
02:11PM 41.9997 -76.7514 71° East 362 417 11,900 -1,200 Descending New York Center
02:12PM 42.0306 -76.6369 70° East 344 396 10,700 -1,140 Descending New York Center
02:13PM 42.0561 -76.5358 71° East 312 359 9,700 -1,020 Descending New York Center
02:14PM 42.0819 -76.4319 71° East 289 333 8,700 -1,320 Descending New York Center
02:15PM 42.1075 -76.3336 71° East 284 327 7,100 -1,500 Descending New York Center
02:16PM 42.1350 -76.2350 69° East 279 321 5,700 -1,440 Descending New York Center
02:17PM 42.1539 -76.1389 75° East 273 314 4,300 -1,200 Descending New York Center
02:18PM 42.1642 -76.0472 81° East 261 300 3,400 -960 Descending New York Center
02:19PM 42.1675 -75.9750 86° East 228 262 2,400 -840 Descending New York Center
02:20PM 42.1878 -75.9372 54° Northeast 160 184 1,800 -600 Descending New York Center
02:27PM 42.2000 -75.9667 259° West  Level FlightAware Approximate
02:34PM 42.2086 -75.9797 259° West  Level Estimated
02:35PM 42.2086 -75.9797 259° West  Level Estimated
02:36PM 42.2086 -75.9797 259° West  Level Estimated
02:37PM 42.2086 -75.9797 259° West  Level Estimated
02:38PM 42.2086 -75.9797 259° West  Level Estimated
02:39PM 42.2086 -75.9797 259° West  Level Estimated
02:40PM 42.2086 -75.9797 259° West  Level Estimated
02:41PM 42.2086 -75.9797 259° West  Level Estimated